Time;durP1;ratioP1;P1;durP2;ratioP2;P2;SDS_P1;SDS_P2;PMS_P1;PMS_P2;Temp;Humidity;BMP_temperature;BMP_pressure;BME280_temperature;BME280_humidity;BME280_pressure;Samples;Min_cycle;Max_cycle;Signal;HPM_P1;HPM_P2
2021/11/23 00:02:06;;;;;;;8.82;3.00;;;21.30;91.20;;;;;;5073667;28;20033;-57
2021/11/23 00:04:33;;;;;;;5.05;2.22;;;21.30;91.90;;;;;;5073788;28;20147;-58
2021/11/23 00:07:00;;;;;;;5.68;3.03;;;21.30;91.90;;;;;;5073273;28;20028;-59
2021/11/23 00:09:31;;;;;;;8.20;3.38;;;21.30;91.60;;;;;;5073659;28;20040;-63
2021/11/23 00:11:58;;;;;;;6.97;2.65;;;21.30;91.20;;;;;;5073415;28;20040;-54
2021/11/23 00:14:25;;;;;;;7.95;2.70;;;21.30;91.60;;;;;;5073916;28;20028;-53
2021/11/23 00:16:53;;;;;;;7.50;2.53;;;21.20;91.40;;;;;;5073662;28;20134;-59
2021/11/23 00:19:20;;;;;;;5.65;2.33;;;21.20;91.70;;;;;;5073860;28;20170;-56
2021/11/23 00:21:48;;;;;;;6.97;2.47;;;21.30;92.00;;;;;;5073599;28;20078;-61
2021/11/23 00:24:15;;;;;;;5.82;2.40;;;21.30;92.00;;;;;;5073289;28;20028;-61
2021/11/23 00:26:42;;;;;;;7.03;2.72;;;21.30;91.90;;;;;;5073739;28;20476;-62
2021/11/23 00:29:10;;;;;;;7.50;3.40;;;21.30;91.30;;;;;;5073471;28;20479;-63
2021/11/23 00:31:37;;;;;;;7.65;3.00;;;21.30;91.90;;;;;;5073304;28;20020;-61
2021/11/23 00:34:05;;;;;;;3.30;2.08;;;21.30;91.80;;;;;;5073193;28;20032;-60
2021/11/23 00:36:32;;;;;;;6.22;2.60;;;21.30;91.30;;;;;;5073533;28;20048;-55
2021/11/23 00:39:00;;;;;;;6.25;2.67;;;21.30;91.70;;;;;;5073524;28;20052;-53
2021/11/23 00:41:27;;;;;;;8.52;2.70;;;21.20;91.40;;;;;;5073754;28;20035;-56
2021/11/23 00:43:54;;;;;;;11.30;3.13;;;21.30;92.00;;;;;;5072878;28;20032;-59
2021/11/23 00:46:22;;;;;;;5.72;2.35;;;21.30;92.00;;;;;;5073129;28;20483;-57
2021/11/23 00:48:49;;;;;;;7.13;2.92;;;21.30;92.50;;;;;;5071654;28;20029;-56
2021/11/23 00:51:17;;;;;;;8.48;2.88;;;21.30;92.10;;;;;;5073135;28;20099;-59
2021/11/23 00:53:44;;;;;;;6.00;2.30;;;21.30;91.90;;;;;;5072433;28;20482;-59
2021/11/23 00:56:11;;;;;;;7.45;2.63;;;21.30;91.60;;;;;;5071746;28;20059;-61
2021/11/23 00:58:39;;;;;;;4.47;2.38;;;21.30;91.60;;;;;;5071964;28;20020;-57
2021/11/23 01:01:08;;;;;;;6.78;2.40;;;21.30;91.90;;;;;;5072595;28;20025;-53
2021/11/23 01:03:35;;;;;;;7.88;2.90;;;21.30;91.60;;;;;;5072797;28;20111;-61
2021/11/23 01:06:03;;;;;;;4.85;2.17;;;21.30;91.50;;;;;;5072505;28;20127;-59
2021/11/23 01:08:31;;;;;;;8.35;2.80;;;21.30;91.60;;;;;;5072497;28;20035;-57
2021/11/23 01:10:58;;;;;;;7.80;2.53;;;21.30;92.10;;;;;;5072747;28;20382;-55
2021/11/23 01:13:25;;;;;;;6.18;2.65;;;21.40;92.00;;;;;;5072396;28;20034;-60
2021/11/23 01:15:53;;;;;;;5.82;2.33;;;21.40;91.40;;;;;;5072426;28;20510;-60
2021/11/23 01:18:20;;;;;;;5.85;2.55;;;21.40;91.30;;;;;;5072515;28;20424;-59
2021/11/23 01:20:48;;;;;;;10.00;2.83;;;21.30;91.70;;;;;;5072948;28;20371;-60
2021/11/23 01:23:15;;;;;;;5.80;2.65;;;21.40;91.80;;;;;;5072702;28;20036;-57
2021/11/23 01:25:42;;;;;;;7.30;2.95;;;21.40;91.40;;;;;;5069652;28;20025;-60
2021/11/23 01:28:10;;;;;;;6.65;2.78;;;21.40;91.70;;;;;;5066221;28;20134;-54
2021/11/23 01:30:39;;;;;;;7.57;2.97;;;21.40;91.70;;;;;;5069144;28;20017;-53
2021/11/23 01:33:06;;;;;;;4.65;2.58;;;21.40;91.60;;;;;;5069761;28;20032;-54
2021/11/23 01:35:34;;;;;;;8.18;2.67;;;21.50;91.60;;;;;;5069467;28;20029;-56
2021/11/23 01:38:01;;;;;;;6.28;2.38;;;21.50;92.10;;;;;;5069227;28;20025;-57
2021/11/23 01:40:29;;;;;;;5.85;2.70;;;21.50;91.50;;;;;;5068673;28;20052;-60
2021/11/23 01:42:59;;;;;;;5.45;2.47;;;21.50;91.40;;;;;;5070135;28;20032;-54
2021/11/23 01:45:26;;;;;;;7.65;2.60;;;21.50;91.40;;;;;;5067125;28;20752;-61
2021/11/23 01:47:54;;;;;;;7.50;2.63;;;21.50;91.40;;;;;;5069963;28;20032;-59
2021/11/23 01:50:21;;;;;;;3.58;2.40;;;21.50;91.40;;;;;;5067766;28;20028;-58
2021/11/23 01:52:48;;;;;;;5.57;2.63;;;21.50;91.20;;;;;;5069119;28;20049;-57
2021/11/23 01:55:16;;;;;;;3.92;1.77;;;21.60;91.20;;;;;;5069020;28;20021;-66
2021/11/23 01:57:44;;;;;;;5.90;2.47;;;21.60;91.30;;;;;;5069778;28;20051;-63
2021/11/23 02:00:13;;;;;;;5.75;2.33;;;21.60;91.40;;;;;;5065665;28;20029;-52
2021/11/23 02:02:41;;;;;;;4.68;2.53;;;21.60;91.60;;;;;;5069676;28;20075;-57
2021/11/23 02:05:09;;;;;;;4.22;2.20;;;21.60;91.40;;;;;;5069615;28;20013;-55
2021/11/23 02:07:37;;;;;;;8.10;2.88;;;21.60;91.50;;;;;;5069526;28;20059;-53
2021/11/23 02:10:06;;;;;;;5.88;1.98;;;21.70;91.50;;;;;;5064093;28;20117;-58
2021/11/23 02:12:35;;;;;;;5.18;2.42;;;21.60;91.30;;;;;;5069806;28;20027;-55
2021/11/23 02:15:06;;;;;;;5.28;2.13;;;21.60;91.30;;;;;;5066307;28;20361;-57
2021/11/23 02:17:34;;;;;;;4.88;2.08;;;21.70;91.40;;;;;;5068830;28;20529;-54
2021/11/23 02:20:03;;;;;;;4.55;2.20;;;21.70;91.30;;;;;;5066776;28;20549;-57
2021/11/23 02:22:31;;;;;;;4.47;2.08;;;21.70;91.30;;;;;;5075997;28;20460;-58
2021/11/23 02:24:58;;;;;;;5.95;2.28;;;21.70;91.40;;;;;;5076512;28;20479;-62
2021/11/23 02:27:26;;;;;;;4.78;2.00;;;21.70;91.40;;;;;;5074788;28;20438;-61
2021/11/23 02:29:53;;;;;;;6.10;2.03;;;21.70;91.40;;;;;;5075589;28;20500;-58
2021/11/23 02:32:20;;;;;;;4.18;1.80;;;21.70;91.50;;;;;;5075974;28;20028;-60
2021/11/23 02:34:51;;;;;;;6.85;2.50;;;21.70;91.30;;;;;;5075538;28;20409;-60
2021/11/23 02:37:18;;;;;;;7.25;2.47;;;21.70;91.60;;;;;;5075668;28;20021;-56
2021/11/23 02:39:46;;;;;;;5.30;2.15;;;21.70;91.60;;;;;;5076058;28;20021;-62
2021/11/23 02:42:13;;;;;;;4.82;2.05;;;21.70;91.70;;;;;;5075151;28;20433;-59
2021/11/23 02:44:46;;;;;;;7.13;2.42;;;21.70;91.60;;;;;;5075206;28;20106;-59
2021/11/23 02:47:14;;;;;;;6.13;2.10;;;21.60;91.60;;;;;;5074391;28;20225;-59
2021/11/23 02:49:41;;;;;;;5.40;2.28;;;21.60;91.80;;;;;;5075669;28;20020;-57
2021/11/23 02:52:11;;;;;;;7.70;2.63;;;21.60;91.90;;;;;;5073839;28;20029;-58
2021/11/23 02:54:38;;;;;;;8.05;2.13;;;21.60;92.00;;;;;;5075254;28;20028;-60
2021/11/23 02:57:06;;;;;;;5.28;1.70;;;21.60;92.10;;;;;;5075546;28;20131;-60
2021/11/23 02:59:35;;;;;;;7.25;2.30;;;21.60;92.30;;;;;;5075241;28;20020;-58
2021/11/23 03:02:08;;;;;;;5.47;1.95;;;21.60;92.00;;;;;;5074576;28;20029;-61
2021/11/23 03:04:35;;;;;;;6.20;1.98;;;21.50;92.20;;;;;;5074608;28;20378;-61
2021/11/23 03:07:03;;;;;;;5.20;2.28;;;21.50;92.20;;;;;;5075071;28;20036;-59
2021/11/23 03:09:31;;;;;;;6.80;2.35;;;21.60;92.40;;;;;;5073938;28;20056;-59
2021/11/23 03:11:58;;;;;;;5.80;2.42;;;21.60;92.40;;;;;;5075108;28;20037;-60
2021/11/23 03:14:26;;;;;;;5.78;2.25;;;21.60;92.20;;;;;;5075129;28;20028;-59
2021/11/23 03:16:53;;;;;;;4.82;1.70;;;21.60;91.80;;;;;;5073604;28;20031;-58
2021/11/23 03:19:21;;;;;;;4.50;2.15;;;21.60;92.00;;;;;;5074666;28;20016;-60
2021/11/23 03:21:49;;;;;;;6.65;2.15;;;21.60;91.80;;;;;;5074625;28;20035;-59
2021/11/23 03:24:16;;;;;;;5.10;1.95;;;21.70;91.80;;;;;;5074983;28;20112;-61
2021/11/23 03:26:44;;;;;;;5.75;2.22;;;21.70;91.90;;;;;;5075109;28;20033;-57
2021/11/23 03:29:11;;;;;;;4.65;2.05;;;21.70;91.90;;;;;;5075086;28;20025;-61
2021/11/23 03:31:39;;;;;;;5.70;2.08;;;21.70;91.90;;;;;;5074713;28;20023;-54
2021/11/23 03:34:06;;;;;;;7.82;2.33;;;21.70;91.70;;;;;;5074665;28;20093;-59
2021/11/23 03:36:39;;;;;;;4.03;1.63;;;21.70;91.70;;;;;;5074664;28;20029;-60
2021/11/23 03:39:08;;;;;;;5.00;1.80;;;21.70;91.70;;;;;;5074691;28;20024;-62
2021/11/23 03:41:36;;;;;;;7.53;2.20;;;21.70;91.70;;;;;;5074873;28;20020;-49
2021/11/23 03:44:06;;;;;;;7.43;2.13;;;21.70;91.80;;;;;;5073827;28;20048;-61
2021/11/23 03:46:34;;;;;;;5.57;2.00;;;21.70;91.90;;;;;;5073411;28;20388;-55
2021/11/23 03:49:02;;;;;;;4.07;1.85;;;21.70;91.60;;;;;;5074364;28;20483;-55
2021/11/23 03:51:29;;;;;;;5.55;1.80;;;21.80;91.90;;;;;;5063578;28;20103;-52
2021/11/23 03:53:57;;;;;;;4.55;1.90;;;21.70;91.90;;;;;;5070490;28;20119;-57
2021/11/23 03:56:24;;;;;;;3.67;1.58;;;21.80;91.60;;;;;;5053712;28;20028;-59
2021/11/23 03:58:52;;;;;;;6.20;2.40;;;21.80;91.70;;;;;;5071513;28;20081;-58
2021/11/23 04:01:19;;;;;;;5.22;1.92;;;21.80;91.60;;;;;;5069543;28;20024;-53
2021/11/23 04:03:46;;;;;;;4.30;1.95;;;21.80;92.00;;;;;;5070800;28;20032;-61
2021/11/23 04:06:14;;;;;;;5.20;2.00;;;21.80;91.70;;;;;;5070213;28;20101;-54
2021/11/23 04:08:41;;;;;;;3.80;1.55;;;21.90;91.70;;;;;;5071422;28;20371;-54
2021/11/23 04:11:09;;;;;;;5.25;2.17;;;21.90;91.60;;;;;;5066904;28;20024;-52
2021/11/23 04:13:36;;;;;;;5.55;1.85;;;21.90;91.70;;;;;;5071352;28;20028;-54
2021/11/23 04:16:04;;;;;;;3.95;1.58;;;21.90;91.70;;;;;;5070758;28;20028;-50
2021/11/23 04:18:32;;;;;;;6.35;2.47;;;21.90;91.90;;;;;;5071027;28;20020;-56
2021/11/23 04:20:59;;;;;;;5.63;1.77;;;21.90;91.80;;;;;;5066944;28;20476;-56
2021/11/23 04:23:26;;;;;;;6.45;2.13;;;21.80;92.20;;;;;;5070752;28;20032;-61
2021/11/23 04:25:54;;;;;;;6.22;2.13;;;21.80;91.70;;;;;;5070793;28;20023;-54
2021/11/23 04:28:21;;;;;;;4.57;2.13;;;21.80;91.70;;;;;;5069855;28;20052;-58
2021/11/23 04:30:49;;;;;;;5.75;1.73;;;21.80;91.80;;;;;;5067870;28;20031;-54
2021/11/23 04:33:16;;;;;;;3.60;1.60;;;21.80;91.70;;;;;;5071135;28;20505;-52
2021/11/23 04:35:44;;;;;;;9.70;2.00;;;21.70;91.80;;;;;;5069460;28;20552;-52
2021/11/23 04:38:12;;;;;;;4.03;1.90;;;21.80;91.80;;;;;;5069732;28;20032;-54
2021/11/23 04:40:40;;;;;;;4.03;1.70;;;21.80;91.90;;;;;;5064368;28;20024;-54
2021/11/23 04:43:09;;;;;;;4.80;1.65;;;21.70;91.80;;;;;;5069939;28;20517;-55
2021/11/23 04:45:38;;;;;;;4.45;2.10;;;21.70;91.90;;;;;;5069775;28;20025;-53
2021/11/23 04:48:07;;;;;;;5.40;1.65;;;21.70;92.00;;;;;;5066076;28;20491;-57
2021/11/23 04:50:34;;;;;;;3.85;1.40;;;21.70;91.90;;;;;;5070457;28;20044;-58
2021/11/23 04:53:03;;;;;;;4.28;1.80;;;21.70;92.10;;;;;;5071656;28;20063;-53
2021/11/23 04:55:31;;;;;;;6.15;2.15;;;21.70;92.00;;;;;;5071956;28;20043;-53
2021/11/23 04:57:59;;;;;;;3.08;1.40;;;21.70;92.00;;;;;;5071754;28;20475;-57
2021/11/23 05:00:26;;;;;;;4.40;2.05;;;21.70;92.10;;;;;;5069801;28;20033;-61
2021/11/23 05:02:53;;;;;;;2.60;1.50;;;21.70;92.10;;;;;;5072057;28;20033;-59
2021/11/23 05:05:21;;;;;;;4.63;1.85;;;21.70;92.10;;;;;;5069233;28;20016;-56
2021/11/23 05:07:48;;;;;;;4.00;1.73;;;21.70;92.20;;;;;;5070544;28;20513;-56
2021/11/23 05:10:16;;;;;;;3.30;1.35;;;21.70;92.20;;;;;;5071335;28;20031;-58
2021/11/23 05:12:44;;;;;;;4.85;2.08;;;21.70;92.20;;;;;;5072554;28;20428;-59
2021/11/23 05:15:12;;;;;;;4.38;1.80;;;21.70;92.20;;;;;;5071923;28;20044;-55
2021/11/23 05:17:39;;;;;;;2.38;1.42;;;21.70;92.30;;;;;;5071650;28;20111;-55
2021/11/23 05:20:08;;;;;;;3.60;1.35;;;21.70;92.30;;;;;;5070744;28;20391;-61
2021/11/23 05:22:36;;;;;;;4.28;1.75;;;21.70;92.30;;;;;;5071566;28;20036;-58
2021/11/23 05:25:05;;;;;;;4.88;1.70;;;21.70;92.30;;;;;;5070488;28;20437;-57
2021/11/23 05:27:33;;;;;;;6.15;1.42;;;21.70;92.40;;;;;;5071863;28;20029;-58
2021/11/23 05:30:02;;;;;;;2.92;1.40;;;21.70;92.30;;;;;;5070608;28;20044;-58
2021/11/23 05:32:30;;;;;;;6.88;1.50;;;21.70;92.50;;;;;;5071743;28;20398;-59
2021/11/23 05:34:57;;;;;;;5.05;1.85;;;21.80;92.50;;;;;;5071651;28;20074;-56
2021/11/23 05:37:25;;;;;;;5.45;1.48;;;21.70;92.30;;;;;;5071701;28;20032;-55
2021/11/23 05:39:52;;;;;;;3.88;1.48;;;21.70;92.40;;;;;;5066746;28;20494;-56
2021/11/23 05:42:20;;;;;;;2.10;1.17;;;21.80;92.30;;;;;;5071361;28;20040;-55
2021/11/23 05:44:47;;;;;;;3.25;1.40;;;21.80;92.40;;;;;;5070215;28;20021;-57
2021/11/23 05:47:14;;;;;;;4.75;1.63;;;21.70;92.40;;;;;;5071124;28;20137;-59
2021/11/23 05:49:42;;;;;;;4.72;1.83;;;21.80;92.50;;;;;;5071484;28;20017;-60
2021/11/23 05:52:10;;;;;;;5.05;1.60;;;21.80;92.70;;;;;;5069975;28;20031;-58
2021/11/23 05:54:38;;;;;;;4.30;1.38;;;21.80;92.40;;;;;;5072122;28;20056;-62
2021/11/23 05:57:05;;;;;;;3.80;1.60;;;21.80;92.50;;;;;;5075775;28;20344;-57
2021/11/23 05:59:33;;;;;;;6.15;1.50;;;21.80;92.50;;;;;;5075516;28;20032;-52
2021/11/23 06:02:00;;;;;;;4.20;1.70;;;21.80;92.30;;;;;;5074086;28;20016;-54
2021/11/23 06:04:28;;;;;;;6.38;1.63;;;21.90;92.30;;;;;;5075296;28;20094;-53
2021/11/23 06:06:55;;;;;;;3.72;1.58;;;21.90;92.30;;;;;;5075146;28;20085;-60
2021/11/23 06:09:23;;;;;;;3.60;1.40;;;21.90;92.40;;;;;;5075784;28;20032;-58
2021/11/23 06:11:50;;;;;;;6.90;1.90;;;21.90;92.20;;;;;;5074392;28;20426;-56
2021/11/23 06:14:18;;;;;;;4.90;1.67;;;21.90;92.40;;;;;;5074122;28;20020;-56
2021/11/23 06:16:46;;;;;;;4.70;1.83;;;21.90;92.30;;;;;;5074989;28;20048;-58
2021/11/23 06:19:14;;;;;;;3.28;1.33;;;21.90;92.20;;;;;;5074903;28;20033;-64
2021/11/23 06:21:42;;;;;;;4.78;1.50;;;21.90;92.20;;;;;;5074537;28;20020;-62
2021/11/23 06:24:11;;;;;;;4.30;1.60;;;21.90;92.20;;;;;;5074848;28;20036;-64
2021/11/23 06:26:39;;;;;;;4.65;1.40;;;21.90;92.20;;;;;;5074853;28;20025;-58
2021/11/23 06:29:07;;;;;;;4.68;1.40;;;21.90;92.40;;;;;;5072363;28;20087;-59
2021/11/23 06:31:34;;;;;;;5.22;1.60;;;21.90;92.30;;;;;;5065223;28;20032;-53
2021/11/23 06:34:07;;;;;;;4.82;1.70;;;21.90;92.30;;;;;;5073011;28;20525;-55
2021/11/23 06:36:35;;;;;;;5.57;1.77;;;21.90;92.40;;;;;;5072393;28;20033;-54
2021/11/23 06:39:07;;;;;;;3.90;1.40;;;21.90;92.40;;;;;;5072999;28;20089;-53
2021/11/23 06:41:35;;;;;;;5.15;1.60;;;21.90;92.40;;;;;;5069905;28;20074;-52
2021/11/23 06:44:03;;;;;;;7.65;1.90;;;21.90;92.40;;;;;;5072077;28;20135;-51
2021/11/23 06:46:31;;;;;;;6.35;1.92;;;21.90;92.40;;;;;;5072673;28;20035;-56
2021/11/23 06:49:00;;;;;;;5.18;1.75;;;21.80;92.40;;;;;;5072193;28;20028;-55
2021/11/23 06:51:27;;;;;;;7.25;1.58;;;21.80;92.40;;;;;;5068735;28;20082;-54
2021/11/23 06:53:55;;;;;;;6.05;1.83;;;21.80;92.50;;;;;;5072062;28;20048;-54
2021/11/23 06:56:23;;;;;;;6.55;1.70;;;21.80;92.60;;;;;;5071529;28;20056;-56
2021/11/23 06:58:50;;;;;;;5.45;1.85;;;21.80;92.60;;;;;;5072527;28;20107;-57
2021/11/23 07:01:18;;;;;;;6.03;1.90;;;21.80;92.50;;;;;;5068513;28;20391;-60
2021/11/23 07:03:46;;;;;;;3.42;1.27;;;21.80;92.50;;;;;;5072481;28;20036;-56
2021/11/23 07:06:13;;;;;;;4.35;1.60;;;21.70;92.60;;;;;;5071515;28;20463;-60
2021/11/23 07:08:41;;;;;;;4.50;1.45;;;21.80;92.60;;;;;;5071084;28;20552;-59
2021/11/23 07:11:09;;;;;;;4.40;1.50;;;21.80;92.50;;;;;;5069097;28;20024;-61
2021/11/23 07:13:37;;;;;;;3.63;1.60;;;21.70;92.60;;;;;;5072422;28;20112;-60
2021/11/23 07:16:05;;;;;;;5.28;1.50;;;21.70;92.60;;;;;;5071923;28;20036;-57
2021/11/23 07:18:32;;;;;;;3.15;1.10;;;21.70;92.60;;;;;;5071605;28;20092;-54
2021/11/23 07:21:00;;;;;;;6.75;1.58;;;21.70;92.60;;;;;;5071097;28;20044;-53
2021/11/23 07:23:27;;;;;;;15.30;2.47;;;21.60;93.40;;;;;;5074636;28;20028;-54
2021/11/23 07:25:55;;;;;;;8.70;1.50;;;21.50;94.20;;;;;;5074526;28;20021;-58
2021/11/23 07:28:22;;;;;;;5.07;1.73;;;21.40;93.80;;;;;;5074745;28;20024;-58
2021/11/23 07:30:54;;;;;;;5.78;1.80;;;21.40;94.20;;;;;;5074809;28;20021;-55
2021/11/23 07:33:22;;;;;;;11.85;3.15;;;21.30;94.40;;;;;;5075018;28;20074;-53
2021/11/23 07:36:19;;;;;;;9.00;2.35;;;21.40;93.90;;;;;;5075083;28;20028;-55
2021/11/23 07:38:50;;;;;;;9.00;2.03;;;21.40;94.60;;;;;;5074066;28;20516;-61
2021/11/23 07:41:18;;;;;;;9.73;2.20;;;21.20;94.60;;;;;;5074433;28;20028;-60
2021/11/23 07:43:45;;;;;;;11.18;2.22;;;21.30;94.50;;;;;;5074297;28;20037;-53
2021/11/23 07:46:13;;;;;;;11.48;2.50;;;21.10;94.80;;;;;;5073394;28;20070;-59
2021/11/23 07:48:41;;;;;;;8.98;1.98;;;21.10;94.80;;;;;;5073232;28;20503;-61
2021/11/23 07:51:08;;;;;;;7.88;1.75;;;21.10;94.60;;;;;;5072541;28;20108;-55
2021/11/23 07:53:36;;;;;;;8.10;2.08;;;21.20;94.20;;;;;;5066844;28;20132;-57
2021/11/23 07:56:03;;;;;;;9.90;1.70;;;21.30;94.10;;;;;;5067739;28;20123;-56
2021/11/23 07:58:31;;;;;;;8.15;2.50;;;21.30;94.10;;;;;;5070707;28;20028;-51
2021/11/23 08:00:58;;;;;;;5.13;1.52;;;21.40;93.90;;;;;;5070961;28;20033;-49
2021/11/23 08:03:25;;;;;;;5.43;1.20;;;21.40;93.80;;;;;;5070260;28;20097;-51
2021/11/23 08:05:53;;;;;;;7.07;1.70;;;21.40;93.70;;;;;;5069102;28;20016;-59
2021/11/23 08:08:22;;;;;;;6.80;1.50;;;21.50;93.60;;;;;;5068840;28;20489;-56
2021/11/23 08:10:50;;;;;;;5.85;1.50;;;21.50;93.60;;;;;;5071249;28;20051;-59
2021/11/23 08:13:17;;;;;;;7.50;1.80;;;21.50;93.60;;;;;;5071596;28;20048;-53
2021/11/23 08:15:45;;;;;;;4.85;1.60;;;21.50;93.60;;;;;;5068698;28;20058;-56
2021/11/23 08:18:12;;;;;;;5.53;1.60;;;21.50;93.60;;;;;;5069562;28;20027;-56
2021/11/23 08:20:40;;;;;;;4.60;1.70;;;21.50;93.50;;;;;;5071343;28;20636;-55
2021/11/23 08:23:07;;;;;;;4.15;1.58;;;21.50;93.50;;;;;;5071052;28;20036;-56
2021/11/23 08:25:35;;;;;;;5.78;1.40;;;21.50;93.50;;;;;;5067836;28;20085;-56
2021/11/23 08:28:02;;;;;;;4.43;1.42;;;21.50;93.50;;;;;;5070363;28;20046;-54
2021/11/23 08:30:30;;;;;;;3.95;1.58;;;21.50;93.50;;;;;;5071237;28;20020;-57
2021/11/23 08:32:57;;;;;;;5.15;1.55;;;21.50;93.60;;;;;;5070294;28;20025;-61
2021/11/23 08:35:25;;;;;;;7.18;1.90;;;21.50;93.50;;;;;;5065705;28;20020;-58
2021/11/23 08:37:52;;;;;;;4.53;1.33;;;21.50;93.60;;;;;;5073285;28;20056;-60
2021/11/23 08:40:20;;;;;;;6.43;1.83;;;21.50;93.60;;;;;;5073806;28;20024;-52
2021/11/23 08:42:47;;;;;;;4.20;1.58;;;21.50;93.80;;;;;;5073511;28;20043;-60
2021/11/23 08:45:14;;;;;;;3.67;1.40;;;21.50;93.60;;;;;;5073692;28;20032;-60
2021/11/23 08:47:42;;;;;;;4.35;1.50;;;21.40;93.60;;;;;;5073674;28;20029;-54
2021/11/23 08:50:11;;;;;;;2.50;1.50;;;21.40;93.70;;;;;;5073141;28;20033;-59
2021/11/23 08:52:40;;;;;;;4.88;1.52;;;21.40;93.80;;;;;;5073046;28;20036;-58
2021/11/23 08:55:08;;;;;;;7.82;1.55;;;21.40;94.00;;;;;;5073631;28;20029;-56
2021/11/23 08:57:36;;;;;;;11.57;1.77;;;21.40;94.60;;;;;;5063411;28;20028;-54
2021/11/23 09:00:14;;;;;;;9.35;1.70;;;21.50;95.10;;;;;;5065507;28;20092;-53
2021/11/23 09:02:43;;;;;;;3.63;1.67;;;21.40;94.90;;;;;;5065573;28;20043;-58
2021/11/23 09:05:12;;;;;;;5.45;1.92;;;21.40;94.80;;;;;;5068196;28;20489;-58
2021/11/23 09:07:41;;;;;;;4.30;1.45;;;21.50;94.70;;;;;;5070528;28;20033;-56
2021/11/23 09:10:16;;;;;;;7.30;2.20;;;21.50;94.70;;;;;;5072983;28;20067;-60
2021/11/23 09:12:44;;;;;;;6.00;1.55;;;21.40;94.70;;;;;;5064647;28;20037;-58
2021/11/23 09:15:12;;;;;;;5.35;1.85;;;21.50;94.70;;;;;;5067780;28;20077;-60
2021/11/23 09:17:40;;;;;;;6.75;1.80;;;21.40;94.60;;;;;;5065171;28;20028;-57
2021/11/23 09:20:09;;;;;;;5.80;2.13;;;21.40;94.40;;;;;;5066981;28;20035;-55
2021/11/23 09:22:39;;;;;;;5.03;1.95;;;21.40;94.40;;;;;;5070352;28;20475;-59
2021/11/23 09:25:09;;;;;;;6.80;2.42;;;21.40;94.30;;;;;;5067606;28;20037;-58
2021/11/23 09:27:36;;;;;;;5.55;1.90;;;21.40;94.30;;;;;;5067384;28;20483;-55
2021/11/23 09:30:07;;;;;;;5.95;2.03;;;21.40;94.30;;;;;;5067679;28;20025;-59
2021/11/23 09:32:35;;;;;;;6.95;1.95;;;21.40;94.40;;;;;;5066708;28;20029;-57
2021/11/23 09:35:02;;;;;;;5.80;1.95;;;21.40;94.30;;;;;;5069822;28;20059;-59
2021/11/23 09:37:30;;;;;;;5.00;2.15;;;21.40;94.40;;;;;;5070471;28;20082;-57
2021/11/23 09:40:03;;;;;;;5.53;1.63;;;21.40;94.40;;;;;;5066815;28;20031;-54
2021/11/23 09:42:31;;;;;;;5.57;1.77;;;21.40;94.40;;;;;;5069468;28;20544;-51
2021/11/23 09:44:59;;;;;;;5.40;1.98;;;21.40;94.40;;;;;;5069949;28;21042;-52
2021/11/23 09:47:27;;;;;;;5.07;2.05;;;21.40;94.40;;;;;;5070019;28;20078;-53
2021/11/23 09:49:57;;;;;;;4.28;1.98;;;21.40;94.60;;;;;;5066491;28;20025;-58
2021/11/23 09:52:24;;;;;;;7.05;2.22;;;21.40;94.60;;;;;;5069363;28;20112;-59
2021/11/23 09:54:52;;;;;;;8.63;1.83;;;21.40;94.60;;;;;;5068998;28;20028;-58
2021/11/23 09:57:20;;;;;;;8.90;2.40;;;21.40;94.50;;;;;;5062657;28;20071;-50
2021/11/23 09:59:47;;;;;;;6.55;1.77;;;21.40;94.50;;;;;;5065305;28;20044;-57
2021/11/23 10:02:25;;;;;;;4.25;1.92;;;21.40;94.40;;;;;;5069062;28;20036;-60
2021/11/23 10:05:06;;;;;;;3.95;1.70;;;21.40;94.40;;;;;;5068008;28;20029;-61
2021/11/23 10:07:39;;;;;;;5.57;1.95;;;21.40;94.40;;;;;;5071767;28;20379;-56
2021/11/23 10:10:18;;;;;;;4.13;2.00;;;21.40;94.70;;;;;;5071195;28;20111;-61
2021/11/23 10:12:57;;;;;;;6.22;2.08;;;21.40;94.40;;;;;;5071521;28;20023;-62
2021/11/23 10:15:28;;;;;;;7.30;1.85;;;21.40;94.60;;;;;;5066748;28;20024;-59
2021/11/23 10:18:16;;;;;;;4.10;1.73;;;21.30;94.40;;;;;;5071195;28;20035;-56
2021/11/23 10:21:03;;;;;;;6.65;1.75;;;21.30;94.40;;;;;;5068302;28;20028;-56
2021/11/23 10:23:35;;;;;;;6.00;1.83;;;21.30;94.40;;;;;;5071439;28;20571;-57
2021/11/23 10:26:15;;;;;;;5.25;2.00;;;21.30;94.40;;;;;;5071189;28;20100;-57
2021/11/23 10:28:51;;;;;;;6.63;2.28;;;21.30;94.40;;;;;;5070959;28;20078;-55
2021/11/23 10:31:21;;;;;;;6.47;2.00;;;21.30;94.40;;;;;;5070633;28;20320;-53
2021/11/23 10:34:01;;;;;;;2.03;1.10;;;21.30;94.30;;;;;;5070828;28;20035;-53
2021/11/23 10:36:39;;;;;;;5.43;1.92;;;21.30;94.40;;;;;;5067620;28;20031;-50
2021/11/23 10:39:20;;;;;;;4.85;1.73;;;21.30;94.40;;;;;;5065907;28;20037;-53
2021/11/23 10:41:54;;;;;;;2.97;1.53;;;21.30;94.30;;;;;;5070811;28;20027;-55
2021/11/23 10:44:35;;;;;;;6.28;1.90;;;21.30;94.30;;;;;;5074446;28;20428;-55
2021/11/23 10:47:07;;;;;;;4.72;1.95;;;21.30;94.30;;;;;;5069767;28;20123;-54
2021/11/23 10:49:34;;;;;;;;;;;21.30;94.40;;;;;;5065588;28;20467;-50
2021/11/23 10:52:04;;;;;;;3.90;1.30;;;21.30;94.30;;;;;;5069998;28;20365;-58
2021/11/23 10:54:35;;;;;;;3.80;1.80;;;21.20;94.30;;;;;;5072288;28;20048;-49
2021/11/23 10:57:10;;;;;;;3.90;2.13;;;21.20;94.20;;;;;;5069148;28;20024;-58
2021/11/23 10:59:39;;;;;;;4.25;1.67;;;21.20;94.20;;;;;;5068836;28;20036;-52
2021/11/23 11:02:07;;;;;;;4.00;2.20;;;21.20;94.20;;;;;;5068540;28;20558;-56
2021/11/23 11:04:37;;;;;;;4.15;1.65;;;21.20;94.20;;;;;;5072839;28;20087;-57
2021/11/23 11:07:05;;;;;;;5.13;1.50;;;21.20;94.30;;;;;;5072957;28;20395;-54
2021/11/23 11:09:34;;;;;;;4.45;1.73;;;21.20;94.20;;;;;;5068702;28;20113;-54
2021/11/23 11:12:03;;;;;;;5.70;2.20;;;21.20;94.20;;;;;;5072478;28;20383;-54
2021/11/23 11:14:35;;;;;;;5.82;1.77;;;21.20;94.20;;;;;;5071841;28;20430;-52
2021/11/23 11:17:08;;;;;;;4.50;1.65;;;21.20;94.20;;;;;;5072225;28;20085;-57
2021/11/23 11:19:48;;;;;;;5.75;1.48;;;21.20;94.20;;;;;;5073780;28;20458;-58
2021/11/23 11:22:18;;;;;;;5.75;2.15;;;21.20;94.20;;;;;;5071360;28;20923;-62
2021/11/23 11:27:37;;;;;;;4.10;1.33;;;21.10;94.20;;;;;;5075361;28;20060;-58
2021/11/23 11:30:23;;;;;;;3.92;1.27;;;21.10;94.20;;;;;;5074941;28;20056;-60
2021/11/23 11:33:11;;;;;;;5.60;1.58;;;21.10;94.20;;;;;;5075053;28;20029;-63
2021/11/23 11:35:39;;;;;;;4.57;1.55;;;21.10;94.20;;;;;;5075093;28;20023;-62
2021/11/23 11:38:27;;;;;;;3.95;1.63;;;21.10;94.20;;;;;;5074259;28;20039;-63
2021/11/23 11:41:41;;;;;;;2.78;1.60;;;21.10;94.20;;;;;;5074693;28;20469;-63
2021/11/23 11:44:16;;;;;;;4.07;1.67;;;21.10;94.30;;;;;;5064602;28;20123;-62
2021/11/23 11:46:43;;;;;;;6.53;1.80;;;21.00;94.20;;;;;;5074098;28;20483;-64
2021/11/23 11:49:11;;;;;;;5.07;1.23;;;21.00;94.30;;;;;;5074795;28;20131;-61
2021/11/23 11:51:41;;;;;;;3.70;1.38;;;21.00;94.30;;;;;;5074362;28;20146;-56
2021/11/23 11:54:21;;;;;;;4.93;1.33;;;21.00;94.30;;;;;;5074206;28;20495;-61
2021/11/23 11:56:51;;;;;;;4.75;1.83;;;21.00;94.30;;;;;;5072428;28;20379;-59
2021/11/23 11:59:18;;;;;;;4.72;1.52;;;21.00;94.50;;;;;;5055095;28;20034;-64
2021/11/23 12:01:54;;;;;;;8.63;2.20;;;21.00;94.40;;;;;;5072646;28;20103;-62
2021/11/23 12:04:26;;;;;;;5.97;1.60;;;21.00;94.40;;;;;;5074521;28;20109;-59
2021/11/23 12:06:56;;;;;;;4.95;1.80;;;21.00;94.40;;;;;;5074714;28;20032;-60
2021/11/23 12:09:38;;;;;;;3.60;1.30;;;21.00;94.40;;;;;;5074631;28;20123;-58
2021/11/23 12:12:11;;;;;;;5.45;1.65;;;21.00;94.50;;;;;;5074358;28;20479;-61
2021/11/23 12:14:53;;;;;;;6.00;1.42;;;20.90;94.40;;;;;;5074679;28;20031;-60
2021/11/23 12:17:33;;;;;;;4.28;1.83;;;20.90;94.50;;;;;;5074525;28;20103;-63
2021/11/23 12:20:28;;;;;;;3.05;1.63;;;20.90;94.50;;;;;;5074040;28;20390;-56
2021/11/23 12:23:14;;;;;;;3.15;1.10;;;20.90;94.50;;;;;;5074272;28;20033;-60
2021/11/23 12:26:15;;;;;;;4.28;1.15;;;20.90;94.50;;;;;;5074292;28;20375;-64
2021/11/23 12:29:06;;;;;;;4.82;1.80;;;20.90;94.50;;;;;;5069478;28;20559;-62
2021/11/23 12:31:44;;;;;;;10.63;2.10;;;20.90;94.50;;;;;;5074181;28;20033;-61
2021/11/23 12:34:12;;;;;;;4.97;1.95;;;20.90;94.50;;;;;;5073890;28;20040;-60
2021/11/23 12:37:00;;;;;;;4.05;1.55;;;20.90;94.50;;;;;;5073060;28;20111;-62
2021/11/23 12:39:38;;;;;;;3.08;1.45;;;20.90;94.50;;;;;;5074318;28;20032;-61
2021/11/23 12:42:15;;;;;;;7.68;2.85;;;20.80;94.50;;;;;;5073820;28;20028;-59
2021/11/23 12:44:47;;;;;;;4.18;1.90;;;20.80;94.50;;;;;;5074149;28;20028;-53
2021/11/23 12:47:24;;;;;;;3.50;1.40;;;20.80;94.50;;;;;;5073966;28;20154;-58
2021/11/23 12:49:58;;;;;;;5.38;1.65;;;20.80;94.50;;;;;;5073881;28;20031;-59
2021/11/23 12:52:28;;;;;;;5.00;1.55;;;20.80;94.50;;;;;;5073624;28;20101;-65
2021/11/23 12:55:02;;;;;;;6.30;1.88;;;20.80;94.50;;;;;;5073999;28;20017;-59
2021/11/23 12:57:30;;;;;;;6.15;1.88;;;20.80;94.50;;;;;;5073839;28;20540;-62
2021/11/23 13:00:01;;;;;;;3.13;1.45;;;20.80;94.50;;;;;;5064368;28;20052;-54
2021/11/23 13:02:37;;;;;;;4.50;1.65;;;20.80;94.50;;;;;;5067290;28;20120;-55
2021/11/23 13:05:32;;;;;;;3.63;1.60;;;20.70;94.40;;;;;;5067097;28;20040;-61